sensor_id;sensor_type;location;lat;lon;timestamp;P1;durP1;ratioP1;P2;durP2;ratioP2
15633;SDS011;14654;48.898;8.308;2022-10-16T00:00:54;1.87;;;0.90;;
15633;SDS011;14654;48.898;8.308;2022-10-16T00:03:19;0.70;;;0.70;;
15633;SDS011;14654;48.898;8.308;2022-10-16T00:05:44;1.37;;;1.10;;
15633;SDS011;14654;48.898;8.308;2022-10-16T00:08:10;2.67;;;1.10;;
15633;SDS011;14654;48.898;8.308;2022-10-16T00:10:36;1.07;;;1.00;;
15633;SDS011;14654;48.898;8.308;2022-10-16T00:13:03;0.97;;;0.73;;
15633;SDS011;14654;48.898;8.308;2022-10-16T00:15:29;1.63;;;1.00;;
15633;SDS011;14654;48.898;8.308;2022-10-16T00:17:54;1.27;;;1.07;;
15633;SDS011;14654;48.898;8.308;2022-10-16T00:20:20;1.77;;;0.90;;
15633;SDS011;14654;48.898;8.308;2022-10-16T00:22:45;1.77;;;0.70;;
15633;SDS011;14654;48.898;8.308;2022-10-16T00:25:11;0.87;;;0.87;;
15633;SDS011;14654;48.898;8.308;2022-10-16T00:27:36;0.80;;;0.80;;
15633;SDS011;14654;48.898;8.308;2022-10-16T00:30:02;1.00;;;0.90;;
15633;SDS011;14654;48.898;8.308;2022-10-16T00:32:28;0.80;;;0.80;;
15633;SDS011;14654;48.898;8.308;2022-10-16T00:34:53;0.90;;;0.90;;
15633;SDS011;14654;48.898;8.308;2022-10-16T00:37:21;0.90;;;0.80;;
15633;SDS011;14654;48.898;8.308;2022-10-16T00:39:47;0.77;;;0.77;;
15633;SDS011;14654;48.898;8.308;2022-10-16T00:42:14;0.97;;;0.87;;
15633;SDS011;14654;48.898;8.308;2022-10-16T00:44:51;1.20;;;1.00;;
15633;SDS011;14654;48.898;8.308;2022-10-16T00:47:26;1.20;;;1.10;;
15633;SDS011;14654;48.898;8.308;2022-10-16T00:50:16;1.80;;;0.90;;
15633;SDS011;14654;48.898;8.308;2022-10-16T00:52:54;1.33;;;1.10;;
15633;SDS011;14654;48.898;8.308;2022-10-16T00:55:21;1.03;;;1.03;;
15633;SDS011;14654;48.898;8.308;2022-10-16T00:57:48;1.17;;;1.07;;
15633;SDS011;14654;48.898;8.308;2022-10-16T01:00:16;0.97;;;0.93;;
15633;SDS011;14654;48.898;8.308;2022-10-16T01:02:56;1.20;;;1.10;;
15633;SDS011;14654;48.898;8.308;2022-10-16T01:05:23;1.03;;;0.90;;
15633;SDS011;14654;48.898;8.308;2022-10-16T01:13:43;0.93;;;0.93;;
15633;SDS011;14654;48.898;8.308;2022-10-16T01:16:16;1.30;;;1.10;;
15633;SDS011;14654;48.898;8.308;2022-10-16T01:19:09;1.17;;;1.00;;
15633;SDS011;14654;48.898;8.308;2022-10-16T01:21:45;1.47;;;1.37;;
15633;SDS011;14654;48.898;8.308;2022-10-16T01:27:18;0.90;;;0.80;;
15633;SDS011;14654;48.898;8.308;2022-10-16T01:36:01;0.90;;;0.90;;
15633;SDS011;14654;48.898;8.308;2022-10-16T01:38:33;0.83;;;0.83;;
15633;SDS011;14654;48.898;8.308;2022-10-16T01:41:03;2.17;;;0.90;;
15633;SDS011;14654;48.898;8.308;2022-10-16T01:43:38;1.60;;;1.20;;
15633;SDS011;14654;48.898;8.308;2022-10-16T01:46:08;1.60;;;1.00;;
15633;SDS011;14654;48.898;8.308;2022-10-16T01:48:35;2.57;;;1.20;;
15633;SDS011;14654;48.898;8.308;2022-10-16T01:51:11;0.80;;;0.80;;
15633;SDS011;14654;48.898;8.308;2022-10-16T01:53:39;2.57;;;1.10;;
15633;SDS011;14654;48.898;8.308;2022-10-16T01:56:07;1.13;;;0.90;;
15633;SDS011;14654;48.898;8.308;2022-10-16T01:58:37;1.37;;;1.27;;
15633;SDS011;14654;48.898;8.308;2022-10-16T02:01:08;1.77;;;1.00;;
15633;SDS011;14654;48.898;8.308;2022-10-16T02:03:36;1.33;;;1.13;;
15633;SDS011;14654;48.898;8.308;2022-10-16T02:06:07;1.20;;;1.10;;
15633;SDS011;14654;48.898;8.308;2022-10-16T02:08:33;1.50;;;1.13;;
15633;SDS011;14654;48.898;8.308;2022-10-16T02:11:00;1.17;;;1.07;;
15633;SDS011;14654;48.898;8.308;2022-10-16T02:13:33;1.17;;;1.10;;
15633;SDS011;14654;48.898;8.308;2022-10-16T02:16:03;2.10;;;1.17;;
15633;SDS011;14654;48.898;8.308;2022-10-16T02:18:29;2.30;;;1.27;;
15633;SDS011;14654;48.898;8.308;2022-10-16T02:26:01;1.53;;;1.27;;
15633;SDS011;14654;48.898;8.308;2022-10-16T02:28:42;2.27;;;1.13;;
15633;SDS011;14654;48.898;8.308;2022-10-16T02:31:12;1.53;;;1.10;;
15633;SDS011;14654;48.898;8.308;2022-10-16T02:33:43;1.20;;;1.10;;
15633;SDS011;14654;48.898;8.308;2022-10-16T02:36:11;1.30;;;1.20;;
15633;SDS011;14654;48.898;8.308;2022-10-16T02:38:36;1.47;;;1.20;;
15633;SDS011;14654;48.898;8.308;2022-10-16T02:41:03;1.57;;;1.10;;
15633;SDS011;14654;48.898;8.308;2022-10-16T02:43:29;3.60;;;1.57;;
15633;SDS011;14654;48.898;8.308;2022-10-16T02:45:54;2.23;;;1.70;;
15633;SDS011;14654;48.898;8.308;2022-10-16T02:48:20;2.83;;;1.57;;
15633;SDS011;14654;48.898;8.308;2022-10-16T02:50:45;2.00;;;1.63;;
15633;SDS011;14654;48.898;8.308;2022-10-16T02:53:10;2.10;;;1.63;;
15633;SDS011;14654;48.898;8.308;2022-10-16T02:55:36;3.23;;;1.80;;
15633;SDS011;14654;48.898;8.308;2022-10-16T02:58:01;2.07;;;1.60;;
15633;SDS011;14654;48.898;8.308;2022-10-16T03:00:26;2.57;;;1.90;;
15633;SDS011;14654;48.898;8.308;2022-10-16T03:02:51;2.87;;;1.57;;
15633;SDS011;14654;48.898;8.308;2022-10-16T03:05:17;4.50;;;1.77;;
15633;SDS011;14654;48.898;8.308;2022-10-16T03:07:42;3.13;;;1.40;;
15633;SDS011;14654;48.898;8.308;2022-10-16T03:10:08;3.27;;;1.53;;
15633;SDS011;14654;48.898;8.308;2022-10-16T03:12:33;2.50;;;1.43;;
15633;SDS011;14654;48.898;8.308;2022-10-16T03:14:59;1.50;;;1.30;;
15633;SDS011;14654;48.898;8.308;2022-10-16T03:17:24;1.53;;;1.37;;
15633;SDS011;14654;48.898;8.308;2022-10-16T03:19:50;1.63;;;1.30;;
15633;SDS011;14654;48.898;8.308;2022-10-16T03:22:16;3.93;;;1.50;;
15633;SDS011;14654;48.898;8.308;2022-10-16T03:24:41;2.03;;;1.20;;
15633;SDS011;14654;48.898;8.308;2022-10-16T03:27:06;3.87;;;1.40;;
15633;SDS011;14654;48.898;8.308;2022-10-16T03:29:32;2.87;;;1.10;;
15633;SDS011;14654;48.898;8.308;2022-10-16T03:31:58;2.00;;;1.37;;
15633;SDS011;14654;48.898;8.308;2022-10-16T03:34:23;1.37;;;1.20;;
15633;SDS011;14654;48.898;8.308;2022-10-16T03:36:49;1.37;;;1.20;;
15633;SDS011;14654;48.898;8.308;2022-10-16T03:39:14;1.40;;;1.20;;
15633;SDS011;14654;48.898;8.308;2022-10-16T03:41:40;2.87;;;1.30;;
15633;SDS011;14654;48.898;8.308;2022-10-16T03:44:08;1.50;;;1.10;;
15633;SDS011;14654;48.898;8.308;2022-10-16T03:46:33;2.33;;;1.20;;
15633;SDS011;14654;48.898;8.308;2022-10-16T03:48:58;1.23;;;1.13;;
15633;SDS011;14654;48.898;8.308;2022-10-16T03:51:24;1.73;;;1.07;;
15633;SDS011;14654;48.898;8.308;2022-10-16T03:53:49;1.23;;;0.90;;
15633;SDS011;14654;48.898;8.308;2022-10-16T03:56:14;3.03;;;1.13;;
15633;SDS011;14654;48.898;8.308;2022-10-16T03:58:40;0.93;;;0.83;;
15633;SDS011;14654;48.898;8.308;2022-10-16T04:01:05;1.43;;;1.10;;
15633;SDS011;14654;48.898;8.308;2022-10-16T04:03:30;0.90;;;0.90;;
15633;SDS011;14654;48.898;8.308;2022-10-16T04:05:56;1.07;;;0.93;;
15633;SDS011;14654;48.898;8.308;2022-10-16T04:08:21;3.23;;;1.43;;
15633;SDS011;14654;48.898;8.308;2022-10-16T04:10:47;2.00;;;0.90;;
15633;SDS011;14654;48.898;8.308;2022-10-16T04:13:12;1.40;;;1.30;;
15633;SDS011;14654;48.898;8.308;2022-10-16T04:15:38;2.23;;;1.20;;
15633;SDS011;14654;48.898;8.308;2022-10-16T04:18:03;3.37;;;1.27;;
15633;SDS011;14654;48.898;8.308;2022-10-16T04:20:30;2.10;;;1.00;;
15633;SDS011;14654;48.898;8.308;2022-10-16T04:22:55;1.40;;;1.13;;
15633;SDS011;14654;48.898;8.308;2022-10-16T04:25:20;1.60;;;1.10;;
15633;SDS011;14654;48.898;8.308;2022-10-16T04:27:48;1.50;;;1.20;;
15633;SDS011;14654;48.898;8.308;2022-10-16T04:30:14;2.50;;;1.07;;
15633;SDS011;14654;48.898;8.308;2022-10-16T04:32:39;2.47;;;1.20;;
15633;SDS011;14654;48.898;8.308;2022-10-16T04:35:05;1.40;;;1.30;;
15633;SDS011;14654;48.898;8.308;2022-10-16T04:37:31;1.30;;;1.13;;
15633;SDS011;14654;48.898;8.308;2022-10-16T04:39:57;1.10;;;1.00;;
15633;SDS011;14654;48.898;8.308;2022-10-16T04:42:22;3.20;;;1.40;;
15633;SDS011;14654;48.898;8.308;2022-10-16T04:44:48;2.27;;;1.40;;
15633;SDS011;14654;48.898;8.308;2022-10-16T04:47:13;1.97;;;1.30;;
15633;SDS011;14654;48.898;8.308;2022-10-16T04:49:38;2.50;;;1.17;;
15633;SDS011;14654;48.898;8.308;2022-10-16T04:52:04;3.43;;;1.30;;
15633;SDS011;14654;48.898;8.308;2022-10-16T04:54:29;1.97;;;1.17;;
15633;SDS011;14654;48.898;8.308;2022-10-16T04:56:54;1.27;;;1.07;;
15633;SDS011;14654;48.898;8.308;2022-10-16T04:59:20;1.43;;;1.30;;
15633;SDS011;14654;48.898;8.308;2022-10-16T05:01:46;2.03;;;1.20;;
15633;SDS011;14654;48.898;8.308;2022-10-16T05:04:11;1.10;;;1.03;;
15633;SDS011;14654;48.898;8.308;2022-10-16T05:06:37;1.93;;;1.37;;
15633;SDS011;14654;48.898;8.308;2022-10-16T05:09:03;1.80;;;1.47;;
15633;SDS011;14654;48.898;8.308;2022-10-16T05:11:29;3.07;;;1.30;;
15633;SDS011;14654;48.898;8.308;2022-10-16T05:13:55;1.63;;;1.30;;
15633;SDS011;14654;48.898;8.308;2022-10-16T05:16:20;1.23;;;1.13;;
15633;SDS011;14654;48.898;8.308;2022-10-16T05:18:45;1.50;;;1.33;;
15633;SDS011;14654;48.898;8.308;2022-10-16T05:21:11;1.30;;;1.20;;
15633;SDS011;14654;48.898;8.308;2022-10-16T05:23:36;1.30;;;1.20;;
15633;SDS011;14654;48.898;8.308;2022-10-16T05:26:01;2.77;;;1.33;;
15633;SDS011;14654;48.898;8.308;2022-10-16T05:28:27;1.97;;;1.23;;
15633;SDS011;14654;48.898;8.308;2022-10-16T05:30:55;1.10;;;1.00;;
15633;SDS011;14654;48.898;8.308;2022-10-16T05:33:21;1.73;;;1.20;;
15633;SDS011;14654;48.898;8.308;2022-10-16T05:35:47;1.83;;;1.10;;
15633;SDS011;14654;48.898;8.308;2022-10-16T05:38:13;1.93;;;1.00;;
15633;SDS011;14654;48.898;8.308;2022-10-16T05:40:38;1.60;;;1.30;;
15633;SDS011;14654;48.898;8.308;2022-10-16T05:43:04;2.03;;;1.20;;
15633;SDS011;14654;48.898;8.308;2022-10-16T05:45:29;1.20;;;1.10;;
15633;SDS011;14654;48.898;8.308;2022-10-16T05:47:55;1.67;;;1.47;;
15633;SDS011;14654;48.898;8.308;2022-10-16T05:50:20;2.20;;;1.53;;
15633;SDS011;14654;48.898;8.308;2022-10-16T05:52:45;3.13;;;1.57;;
15633;SDS011;14654;48.898;8.308;2022-10-16T05:55:11;2.10;;;1.73;;
15633;SDS011;14654;48.898;8.308;2022-10-16T05:57:36;1.57;;;1.40;;
15633;SDS011;14654;48.898;8.308;2022-10-16T06:00:02;1.97;;;1.60;;
15633;SDS011;14654;48.898;8.308;2022-10-16T06:02:28;2.37;;;1.63;;
15633;SDS011;14654;48.898;8.308;2022-10-16T06:04:53;3.30;;;1.67;;
15633;SDS011;14654;48.898;8.308;2022-10-16T06:07:18;2.60;;;2.33;;
15633;SDS011;14654;48.898;8.308;2022-10-16T06:09:44;3.03;;;2.73;;
15633;SDS011;14654;48.898;8.308;2022-10-16T06:12:13;3.93;;;3.47;;
15633;SDS011;14654;48.898;8.308;2022-10-16T06:14:38;4.40;;;2.90;;
15633;SDS011;14654;48.898;8.308;2022-10-16T06:17:03;3.77;;;3.47;;
15633;SDS011;14654;48.898;8.308;2022-10-16T06:19:29;4.30;;;3.43;;
15633;SDS011;14654;48.898;8.308;2022-10-16T06:21:54;4.27;;;2.97;;
15633;SDS011;14654;48.898;8.308;2022-10-16T06:24:20;3.13;;;2.83;;
15633;SDS011;14654;48.898;8.308;2022-10-16T06:26:45;3.20;;;2.90;;
15633;SDS011;14654;48.898;8.308;2022-10-16T06:29:10;2.93;;;2.50;;
15633;SDS011;14654;48.898;8.308;2022-10-16T06:31:36;12.30;;;9.60;;
15633;SDS011;14654;48.898;8.308;2022-10-16T06:34:01;34.00;;;28.80;;
15633;SDS011;14654;48.898;8.308;2022-10-16T06:36:27;25.53;;;21.67;;
15633;SDS011;14654;48.898;8.308;2022-10-16T06:38:52;17.43;;;15.37;;
15633;SDS011;14654;48.898;8.308;2022-10-16T06:41:19;18.83;;;16.90;;
15633;SDS011;14654;48.898;8.308;2022-10-16T06:43:45;18.20;;;16.30;;
15633;SDS011;14654;48.898;8.308;2022-10-16T06:46:12;12.90;;;11.60;;
15633;SDS011;14654;48.898;8.308;2022-10-16T06:48:40;11.20;;;9.00;;
15633;SDS011;14654;48.898;8.308;2022-10-16T06:51:08;8.67;;;7.77;;
15633;SDS011;14654;48.898;8.308;2022-10-16T06:53:35;6.13;;;5.53;;
15633;SDS011;14654;48.898;8.308;2022-10-16T06:56:06;5.43;;;4.93;;
15633;SDS011;14654;48.898;8.308;2022-10-16T06:58:42;4.13;;;3.57;;
15633;SDS011;14654;48.898;8.308;2022-10-16T07:01:08;4.10;;;3.37;;
15633;SDS011;14654;48.898;8.308;2022-10-16T07:03:38;3.27;;;2.40;;
15633;SDS011;14654;48.898;8.308;2022-10-16T07:06:05;3.60;;;2.20;;
15633;SDS011;14654;48.898;8.308;2022-10-16T07:08:35;3.57;;;2.00;;
15633;SDS011;14654;48.898;8.308;2022-10-16T07:11:03;2.07;;;1.90;;
15633;SDS011;14654;48.898;8.308;2022-10-16T07:13:32;2.60;;;2.40;;
15633;SDS011;14654;48.898;8.308;2022-10-16T07:16:03;2.50;;;2.30;;
15633;SDS011;14654;48.898;8.308;2022-10-16T07:18:29;5.00;;;4.53;;
15633;SDS011;14654;48.898;8.308;2022-10-16T07:21:02;5.30;;;4.97;;
15633;SDS011;14654;48.898;8.308;2022-10-16T07:23:31;4.63;;;4.33;;
15633;SDS011;14654;48.898;8.308;2022-10-16T07:25:57;4.57;;;4.27;;
15633;SDS011;14654;48.898;8.308;2022-10-16T07:28:22;3.77;;;3.57;;
15633;SDS011;14654;48.898;8.308;2022-10-16T07:30:48;3.63;;;3.40;;
15633;SDS011;14654;48.898;8.308;2022-10-16T07:33:13;2.60;;;2.40;;
15633;SDS011;14654;48.898;8.308;2022-10-16T07:35:46;2.33;;;2.17;;
15633;SDS011;14654;48.898;8.308;2022-10-16T07:38:12;2.20;;;2.00;;
15633;SDS011;14654;48.898;8.308;2022-10-16T07:40:38;3.17;;;1.83;;
15633;SDS011;14654;48.898;8.308;2022-10-16T07:43:03;2.13;;;1.77;;
15633;SDS011;14654;48.898;8.308;2022-10-16T07:45:30;1.60;;;1.50;;
15633;SDS011;14654;48.898;8.308;2022-10-16T07:47:55;1.87;;;1.50;;
15633;SDS011;14654;48.898;8.308;2022-10-16T07:50:20;1.50;;;1.40;;
15633;SDS011;14654;48.898;8.308;2022-10-16T07:52:46;1.33;;;1.20;;
15633;SDS011;14654;48.898;8.308;2022-10-16T07:55:11;2.47;;;1.57;;
15633;SDS011;14654;48.898;8.308;2022-10-16T07:57:36;1.83;;;1.23;;
15633;SDS011;14654;48.898;8.308;2022-10-16T08:00:02;3.03;;;1.97;;
15633;SDS011;14654;48.898;8.308;2022-10-16T08:02:27;2.20;;;1.63;;
15633;SDS011;14654;48.898;8.308;2022-10-16T08:04:53;1.63;;;1.23;;
15633;SDS011;14654;48.898;8.308;2022-10-16T08:07:18;2.50;;;1.50;;
15633;SDS011;14654;48.898;8.308;2022-10-16T08:09:43;1.90;;;1.47;;
15633;SDS011;14654;48.898;8.308;2022-10-16T08:12:09;3.27;;;1.73;;
15633;SDS011;14654;48.898;8.308;2022-10-16T08:14:35;2.67;;;1.40;;
15633;SDS011;14654;48.898;8.308;2022-10-16T08:17:01;1.63;;;1.20;;
15633;SDS011;14654;48.898;8.308;2022-10-16T08:19:27;1.53;;;1.43;;
15633;SDS011;14654;48.898;8.308;2022-10-16T08:21:52;1.80;;;1.30;;
15633;SDS011;14654;48.898;8.308;2022-10-16T08:24:18;2.20;;;1.60;;
15633;SDS011;14654;48.898;8.308;2022-10-16T08:26:43;5.93;;;2.50;;
15633;SDS011;14654;48.898;8.308;2022-10-16T08:29:08;3.30;;;1.87;;
15633;SDS011;14654;48.898;8.308;2022-10-16T08:31:33;2.73;;;1.53;;
15633;SDS011;14654;48.898;8.308;2022-10-16T08:33:59;1.83;;;1.57;;
15633;SDS011;14654;48.898;8.308;2022-10-16T08:36:24;1.53;;;1.33;;
15633;SDS011;14654;48.898;8.308;2022-10-16T08:38:50;3.13;;;1.50;;
15633;SDS011;14654;48.898;8.308;2022-10-16T08:41:19;2.03;;;1.50;;
15633;SDS011;14654;48.898;8.308;2022-10-16T08:46:51;2.53;;;1.40;;
15633;SDS011;14654;48.898;8.308;2022-10-16T08:49:26;1.40;;;0.90;;
15633;SDS011;14654;48.898;8.308;2022-10-16T08:51:52;1.63;;;1.20;;
15633;SDS011;14654;48.898;8.308;2022-10-16T08:56:56;2.60;;;1.40;;
15633;SDS011;14654;48.898;8.308;2022-10-16T08:59:26;2.00;;;1.10;;
15633;SDS011;14654;48.898;8.308;2022-10-16T09:01:51;1.53;;;1.17;;
15633;SDS011;14654;48.898;8.308;2022-10-16T09:07:05;1.53;;;1.27;;
15633;SDS011;14654;48.898;8.308;2022-10-16T09:13:02;1.27;;;1.17;;
15633;SDS011;14654;48.898;8.308;2022-10-16T09:18:22;1.40;;;0.93;;
15633;SDS011;14654;48.898;8.308;2022-10-16T09:23:28;1.00;;;0.90;;
15633;SDS011;14654;48.898;8.308;2022-10-16T09:25:55;1.47;;;0.97;;
15633;SDS011;14654;48.898;8.308;2022-10-16T09:28:23;1.07;;;0.97;;
15633;SDS011;14654;48.898;8.308;2022-10-16T09:30:49;1.87;;;1.23;;
15633;SDS011;14654;48.898;8.308;2022-10-16T09:33:15;1.50;;;1.23;;
15633;SDS011;14654;48.898;8.308;2022-10-16T09:35:44;0.90;;;0.90;;
15633;SDS011;14654;48.898;8.308;2022-10-16T09:38:29;1.30;;;1.20;;
15633;SDS011;14654;48.898;8.308;2022-10-16T09:40:57;1.93;;;1.00;;
15633;SDS011;14654;48.898;8.308;2022-10-16T09:43:25;1.20;;;1.10;;
15633;SDS011;14654;48.898;8.308;2022-10-16T09:45:58;1.10;;;1.00;;
15633;SDS011;14654;48.898;8.308;2022-10-16T09:48:34;1.33;;;1.23;;
15633;SDS011;14654;48.898;8.308;2022-10-16T09:51:05;1.03;;;0.93;;
15633;SDS011;14654;48.898;8.308;2022-10-16T09:53:40;1.83;;;1.20;;
15633;SDS011;14654;48.898;8.308;2022-10-16T09:56:09;1.97;;;1.10;;
15633;SDS011;14654;48.898;8.308;2022-10-16T09:58:41;1.47;;;1.37;;
15633;SDS011;14654;48.898;8.308;2022-10-16T10:01:11;1.13;;;1.03;;
15633;SDS011;14654;48.898;8.308;2022-10-16T10:03:39;1.17;;;1.07;;
15633;SDS011;14654;48.898;8.308;2022-10-16T10:06:15;2.03;;;1.00;;
15633;SDS011;14654;48.898;8.308;2022-10-16T10:08:53;1.27;;;1.17;;
15633;SDS011;14654;48.898;8.308;2022-10-16T10:11:36;1.50;;;1.30;;
15633;SDS011;14654;48.898;8.308;2022-10-16T10:14:26;1.30;;;1.20;;
15633;SDS011;14654;48.898;8.308;2022-10-16T10:16:51;1.30;;;1.20;;
15633;SDS011;14654;48.898;8.308;2022-10-16T10:19:26;1.90;;;1.13;;
15633;SDS011;14654;48.898;8.308;2022-10-16T10:21:52;1.27;;;1.03;;
15633;SDS011;14654;48.898;8.308;2022-10-16T10:24:18;1.20;;;1.10;;
15633;SDS011;14654;48.898;8.308;2022-10-16T10:26:47;2.03;;;1.27;;
15633;SDS011;14654;48.898;8.308;2022-10-16T10:29:21;1.07;;;1.00;;
15633;SDS011;14654;48.898;8.308;2022-10-16T10:32:35;1.40;;;1.10;;
15633;SDS011;14654;48.898;8.308;2022-10-16T10:35:00;0.90;;;0.90;;
15633;SDS011;14654;48.898;8.308;2022-10-16T10:45:38;1.97;;;1.50;;
15633;SDS011;14654;48.898;8.308;2022-10-16T10:51:00;1.10;;;1.00;;
15633;SDS011;14654;48.898;8.308;2022-10-16T10:53:40;1.60;;;1.17;;
15633;SDS011;14654;48.898;8.308;2022-10-16T11:06:57;1.07;;;0.97;;
15633;SDS011;14654;48.898;8.308;2022-10-16T11:09:43;1.40;;;1.07;;
15633;SDS011;14654;48.898;8.308;2022-10-16T11:12:15;2.17;;;1.20;;
15633;SDS011;14654;48.898;8.308;2022-10-16T11:17:42;1.30;;;1.20;;
15633;SDS011;14654;48.898;8.308;2022-10-16T11:22:44;1.33;;;1.20;;
15633;SDS011;14654;48.898;8.308;2022-10-16T11:27:50;1.20;;;1.10;;
15633;SDS011;14654;48.898;8.308;2022-10-16T11:30:25;1.30;;;1.20;;
15633;SDS011;14654;48.898;8.308;2022-10-16T11:41:00;1.53;;;1.10;;
15633;SDS011;14654;48.898;8.308;2022-10-16T11:43:38;1.40;;;1.30;;
15633;SDS011;14654;48.898;8.308;2022-10-16T11:46:10;2.50;;;1.40;;
15633;SDS011;14654;48.898;8.308;2022-10-16T11:48:50;1.73;;;1.40;;
15633;SDS011;14654;48.898;8.308;2022-10-16T11:51:30;1.50;;;1.23;;
15633;SDS011;14654;48.898;8.308;2022-10-16T11:54:16;1.33;;;1.10;;
15633;SDS011;14654;48.898;8.308;2022-10-16T11:56:51;1.80;;;1.10;;
15633;SDS011;14654;48.898;8.308;2022-10-16T11:59:32;3.77;;;1.13;;
15633;SDS011;14654;48.898;8.308;2022-10-16T12:05:23;2.63;;;1.27;;
15633;SDS011;14654;48.898;8.308;2022-10-16T12:10:47;1.50;;;1.30;;
15633;SDS011;14654;48.898;8.308;2022-10-16T12:18:42;1.53;;;1.20;;
15633;SDS011;14654;48.898;8.308;2022-10-16T12:21:10;2.70;;;1.27;;
15633;SDS011;14654;48.898;8.308;2022-10-16T12:23:51;1.97;;;1.10;;
15633;SDS011;14654;48.898;8.308;2022-10-16T12:26:26;1.20;;;1.10;;
15633;SDS011;14654;48.898;8.308;2022-10-16T12:28:54;1.57;;;1.17;;
15633;SDS011;14654;48.898;8.308;2022-10-16T12:31:21;1.57;;;1.20;;
15633;SDS011;14654;48.898;8.308;2022-10-16T12:33:57;1.30;;;1.20;;
15633;SDS011;14654;48.898;8.308;2022-10-16T12:36:27;1.27;;;1.17;;
15633;SDS011;14654;48.898;8.308;2022-10-16T12:38:55;1.67;;;1.20;;
15633;SDS011;14654;48.898;8.308;2022-10-16T12:41:27;2.80;;;1.30;;
15633;SDS011;14654;48.898;8.308;2022-10-16T12:43:55;1.53;;;1.43;;
15633;SDS011;14654;48.898;8.308;2022-10-16T12:46:22;1.07;;;0.97;;
15633;SDS011;14654;48.898;8.308;2022-10-16T12:51:37;1.30;;;1.20;;
15633;SDS011;14654;48.898;8.308;2022-10-16T12:56:38;1.47;;;1.13;;
15633;SDS011;14654;48.898;8.308;2022-10-16T12:59:24;1.30;;;1.20;;
15633;SDS011;14654;48.898;8.308;2022-10-16T13:04:45;1.30;;;1.20;;
15633;SDS011;14654;48.898;8.308;2022-10-16T13:21:53;1.90;;;1.23;;
15633;SDS011;14654;48.898;8.308;2022-10-16T13:30:39;2.20;;;1.43;;
15633;SDS011;14654;48.898;8.308;2022-10-16T13:33:13;3.07;;;1.43;;
15633;SDS011;14654;48.898;8.308;2022-10-16T13:35:54;3.17;;;1.50;;
15633;SDS011;14654;48.898;8.308;2022-10-16T13:38:21;2.90;;;1.50;;
15633;SDS011;14654;48.898;8.308;2022-10-16T13:40:49;2.13;;;1.43;;
15633;SDS011;14654;48.898;8.308;2022-10-16T13:43:17;2.10;;;1.43;;
15633;SDS011;14654;48.898;8.308;2022-10-16T13:45:54;3.63;;;1.50;;
15633;SDS011;14654;48.898;8.308;2022-10-16T13:48:21;2.17;;;1.50;;
15633;SDS011;14654;48.898;8.308;2022-10-16T13:50:57;2.60;;;1.30;;
15633;SDS011;14654;48.898;8.308;2022-10-16T13:53:23;1.60;;;1.50;;
15633;SDS011;14654;48.898;8.308;2022-10-16T13:55:48;1.60;;;1.50;;
15633;SDS011;14654;48.898;8.308;2022-10-16T13:58:14;2.17;;;1.27;;
15633;SDS011;14654;48.898;8.308;2022-10-16T14:00:40;1.50;;;1.40;;
15633;SDS011;14654;48.898;8.308;2022-10-16T14:03:20;2.57;;;1.63;;
15633;SDS011;14654;48.898;8.308;2022-10-16T14:05:56;1.57;;;1.47;;
15633;SDS011;14654;48.898;8.308;2022-10-16T14:08:24;1.47;;;1.37;;
15633;SDS011;14654;48.898;8.308;2022-10-16T14:10:59;1.60;;;1.30;;
15633;SDS011;14654;48.898;8.308;2022-10-16T14:13:34;2.13;;;1.30;;
15633;SDS011;14654;48.898;8.308;2022-10-16T14:16:07;2.57;;;1.50;;
15633;SDS011;14654;48.898;8.308;2022-10-16T14:18:37;3.33;;;1.50;;
15633;SDS011;14654;48.898;8.308;2022-10-16T14:21:05;2.30;;;1.20;;
15633;SDS011;14654;48.898;8.308;2022-10-16T14:23:39;2.53;;;1.47;;
15633;SDS011;14654;48.898;8.308;2022-10-16T14:28:33;2.40;;;1.50;;
15633;SDS011;14654;48.898;8.308;2022-10-16T14:30:59;2.50;;;1.70;;
15633;SDS011;14654;48.898;8.308;2022-10-16T14:35:59;2.43;;;1.53;;
15633;SDS011;14654;48.898;8.308;2022-10-16T14:38:28;3.80;;;1.80;;
15633;SDS011;14654;48.898;8.308;2022-10-16T14:40:54;1.50;;;1.40;;
15633;SDS011;14654;48.898;8.308;2022-10-16T14:43:29;2.53;;;1.33;;
15633;SDS011;14654;48.898;8.308;2022-10-16T14:45:58;2.03;;;1.67;;
15633;SDS011;14654;48.898;8.308;2022-10-16T14:48:23;3.97;;;1.47;;
15633;SDS011;14654;48.898;8.308;2022-10-16T14:50:49;2.27;;;1.40;;
15633;SDS011;14654;48.898;8.308;2022-10-16T14:53:15;2.40;;;1.60;;
15633;SDS011;14654;48.898;8.308;2022-10-16T14:55:40;2.33;;;2.00;;
15633;SDS011;14654;48.898;8.308;2022-10-16T14:58:25;4.13;;;1.73;;
15633;SDS011;14654;48.898;8.308;2022-10-16T15:00:51;1.77;;;1.67;;
15633;SDS011;14654;48.898;8.308;2022-10-16T15:03:16;1.83;;;1.40;;
15633;SDS011;14654;48.898;8.308;2022-10-16T15:05:42;3.17;;;1.87;;
15633;SDS011;14654;48.898;8.308;2022-10-16T15:08:07;2.20;;;1.60;;
15633;SDS011;14654;48.898;8.308;2022-10-16T15:10:33;2.47;;;1.93;;
15633;SDS011;14654;48.898;8.308;2022-10-16T15:13:05;2.00;;;1.80;;
15633;SDS011;14654;48.898;8.308;2022-10-16T15:15:35;2.90;;;2.10;;
15633;SDS011;14654;48.898;8.308;2022-10-16T15:18:02;4.00;;;2.10;;
15633;SDS011;14654;48.898;8.308;2022-10-16T15:20:30;3.13;;;2.20;;
15633;SDS011;14654;48.898;8.308;2022-10-16T15:22:59;2.53;;;1.83;;
15633;SDS011;14654;48.898;8.308;2022-10-16T15:27:57;1.73;;;1.60;;
15633;SDS011;14654;48.898;8.308;2022-10-16T15:30:23;2.53;;;1.97;;
15633;SDS011;14654;48.898;8.308;2022-10-16T15:32:49;2.07;;;1.87;;
15633;SDS011;14654;48.898;8.308;2022-10-16T15:35:14;1.80;;;1.60;;
15633;SDS011;14654;48.898;8.308;2022-10-16T15:37:39;2.40;;;1.40;;
15633;SDS011;14654;48.898;8.308;2022-10-16T15:40:05;2.07;;;1.70;;
15633;SDS011;14654;48.898;8.308;2022-10-16T15:42:30;3.07;;;1.90;;
15633;SDS011;14654;48.898;8.308;2022-10-16T15:44:56;2.87;;;1.90;;
15633;SDS011;14654;48.898;8.308;2022-10-16T15:47:21;2.00;;;1.80;;
15633;SDS011;14654;48.898;8.308;2022-10-16T15:49:46;4.07;;;1.90;;
15633;SDS011;14654;48.898;8.308;2022-10-16T15:52:12;1.90;;;1.80;;
15633;SDS011;14654;48.898;8.308;2022-10-16T15:54:37;5.33;;;1.93;;
15633;SDS011;14654;48.898;8.308;2022-10-16T15:57:02;2.73;;;1.97;;
15633;SDS011;14654;48.898;8.308;2022-10-16T15:59:28;3.63;;;2.00;;
15633;SDS011;14654;48.898;8.308;2022-10-16T16:01:53;2.43;;;1.90;;
15633;SDS011;14654;48.898;8.308;2022-10-16T16:04:18;2.50;;;2.30;;
15633;SDS011;14654;48.898;8.308;2022-10-16T16:06:44;2.53;;;1.70;;
15633;SDS011;14654;48.898;8.308;2022-10-16T16:09:13;2.90;;;1.90;;
15633;SDS011;14654;48.898;8.308;2022-10-16T16:11:39;2.40;;;1.80;;
15633;SDS011;14654;48.898;8.308;2022-10-16T16:14:05;8.10;;;2.17;;
15633;SDS011;14654;48.898;8.308;2022-10-16T16:16:31;2.60;;;2.03;;
15633;SDS011;14654;48.898;8.308;2022-10-16T16:19:01;2.03;;;1.87;;
15633;SDS011;14654;48.898;8.308;2022-10-16T16:21:27;2.87;;;1.97;;
15633;SDS011;14654;48.898;8.308;2022-10-16T16:23:52;4.13;;;2.20;;
15633;SDS011;14654;48.898;8.308;2022-10-16T16:26:25;2.37;;;2.17;;
15633;SDS011;14654;48.898;8.308;2022-10-16T16:28:57;1.90;;;1.77;;
15633;SDS011;14654;48.898;8.308;2022-10-16T16:31:26;3.17;;;2.10;;
15633;SDS011;14654;48.898;8.308;2022-10-16T16:33:52;2.70;;;2.10;;
15633;SDS011;14654;48.898;8.308;2022-10-16T16:36:21;4.87;;;2.17;;
15633;SDS011;14654;48.898;8.308;2022-10-16T16:38:46;2.80;;;2.60;;
15633;SDS011;14654;48.898;8.308;2022-10-16T16:43:37;2.57;;;1.80;;
15633;SDS011;14654;48.898;8.308;2022-10-16T16:46:02;2.93;;;1.97;;
15633;SDS011;14654;48.898;8.308;2022-10-16T16:48:28;3.27;;;2.07;;
15633;SDS011;14654;48.898;8.308;2022-10-16T16:50:53;4.13;;;2.00;;
15633;SDS011;14654;48.898;8.308;2022-10-16T16:53:18;3.30;;;2.00;;
15633;SDS011;14654;48.898;8.308;2022-10-16T16:55:43;3.17;;;2.33;;
15633;SDS011;14654;48.898;8.308;2022-10-16T16:58:09;2.60;;;2.40;;
15633;SDS011;14654;48.898;8.308;2022-10-16T17:00:34;2.87;;;2.67;;